Great Falls, MT (59401)

12:57 AM MST on February 06, 2016 (GMT -0700)
Great Falls South SIde | | Change Station
CLOSE
Current Station
Personal Weather Station
Location: Great Falls, MT
Elevation: 3399 ft
Nearby Weather Stations
Active Advisory: High Wind Warning

Elev 3399 ft 47.50 °N, 111.27 °W | Updated 4 seconds ago

Partly Cloudy
Partly Cloudy
46.3 °F
Feels Like 43 °F
N
7.0
Wind Variable Wind from SW
Gusts 18.0 mph

Today
High -- | Low -- °F
--% Chance of Precip.
Yesterday
High -- | Low -- °F
Precip. -- in
Pressure 30.00 in
Visibility 10.0 miles
Clouds Clear
Windchill 43 °F
Dew Point 23 °F
Humidity 40%
Rainfall 0.00 in
Snow Depth Not available.
7:45 AM 5:33 PM
Waning Crescent, 7% visible
METAR KGTF 060753Z 22022G28KT 10SM CLR 06/M06 A2995 RMK AO2 PK WND 22037/0726 SLP157 T00611061
Pressure 30.00 in
Visibility 10.0 miles
Clouds Clear
Windchill 43 °F
Dew Point 23 °F
Humidity 40%
Rainfall 0.00 in
Snow Depth Not available.
7:45 AM 5:33 PM
Waning Crescent, 7% visible
METAR KGTF 060753Z 22022G28KT 10SM CLR 06/M06 A2995 RMK AO2 PK WND 22037/0726 SLP157 T00611061

10-Day Weather Forecast

Almanac

Astronomy

Feb. 06, 2016 Rise Set
Actual Time
Civil Twilight
Nautical Twilight
Astronomical Twilight
Moon
Length of Visible Light
Length of Day
Tomorrow will be .
, % of the Moon is Illuminated

Today's Extremes

State Highs State Lows

Community

WunderPhotos

Upload Photos

1,890,933 photos uploaded!

WunderBlog® & News

Nearby

Air Quality

  Air Quality AQ Index Pollutant
Not available.

Snow Depth

Station Depth Elevation

Earthquake Activity

City Distance Mag. Time & Date
Minimum magnitude displayed is 2.5.

Coastal Water Temperatures

Place Temperature

Stations

Nearby Weather Stations

Station Location Temp. Windchill Dew Point Humidity Wind Precip. Elev Updated Type
                   

Watches & Warnings

High Wind Warning
Issued: 9:05 PM MST Feb. 5, 2016 – National Weather Service

... High Wind Warning remains in effect until 5 PM MST Saturday...

* timing... southwest to west winds will increase late this
evening and remain strong through Saturday afternoon.
Strongest winds are likely to occur Saturday morning.

* Winds... southwest to west winds 35 to 45 mph with gusts to 70
mph.

* Impacts... strong winds may cause difficult driving conditions
for high profile vehicles.

Precautionary/preparedness actions...

A High Wind Warning means a hazardous high wind event is expected
or occurring. Strong winds endanger transportation and could
cause property damage.